createdAt,value
2019-05-25T00:01:36.799Z,16.40
2019-05-25T00:04:07.353Z,16.40
2019-05-25T00:06:37.841Z,16.40
2019-05-25T00:09:08.651Z,16.40
2019-05-25T00:11:39.206Z,16.40
2019-05-25T00:14:09.987Z,16.30
2019-05-25T00:16:40.518Z,16.20
2019-05-25T00:19:10.985Z,16.10
2019-05-25T00:21:41.744Z,16.00
2019-05-25T00:24:12.976Z,16.00
2019-05-25T00:26:43.854Z,15.90
2019-05-25T00:29:14.383Z,15.90
2019-05-25T00:31:45.179Z,15.80
2019-05-25T00:34:15.855Z,15.70
2019-05-25T00:36:47.117Z,15.70
2019-05-25T00:39:18.024Z,15.70
2019-05-25T00:41:48.806Z,15.60
2019-05-25T00:44:19.224Z,15.60
2019-05-25T00:46:50.224Z,15.50
2019-05-25T00:49:20.642Z,15.50
2019-05-25T00:51:51.056Z,15.40
2019-05-25T00:54:27.803Z,15.40
2019-05-25T00:56:54.150Z,15.40
2019-05-25T00:59:24.659Z,15.40
2019-05-25T01:01:55.583Z,15.20
2019-05-25T01:04:26.123Z,15.10
2019-05-25T01:06:57.159Z,15.00
2019-05-25T01:09:27.662Z,14.90
2019-05-25T01:11:58.167Z,14.90
2019-05-25T01:14:28.891Z,14.80
2019-05-25T01:16:59.457Z,14.80
2019-05-25T01:19:30.075Z,14.70
2019-05-25T01:22:00.771Z,14.70
2019-05-25T01:24:43.996Z,14.70
2019-05-25T01:27:03.608Z,14.70
2019-05-25T01:29:34.171Z,14.60
2019-05-25T01:32:04.746Z,14.50
2019-05-25T01:34:35.274Z,14.40
2019-05-25T01:37:05.982Z,14.30
2019-05-25T01:39:36.739Z,14.30
2019-05-25T01:42:07.630Z,14.20
2019-05-25T01:44:38.231Z,14.10
2019-05-25T01:47:08.729Z,14.10
2019-05-25T01:49:39.281Z,14.00
2019-05-25T01:52:09.706Z,14.00
2019-05-25T01:54:40.386Z,14.00
2019-05-25T01:57:10.986Z,13.90
2019-05-25T01:59:41.637Z,13.90
2019-05-25T02:02:12.228Z,13.90
2019-05-25T02:04:43.001Z,13.90
2019-05-25T02:07:13.506Z,13.90
2019-05-25T02:09:44.368Z,13.80
2019-05-25T02:12:14.880Z,13.80
2019-05-25T02:14:45.575Z,13.80
2019-05-25T02:17:17.058Z,13.80
2019-05-25T02:19:47.608Z,13.90
2019-05-25T02:22:18.462Z,13.80
2019-05-25T02:24:48.942Z,13.80
2019-05-25T02:27:19.706Z,13.70
2019-05-25T02:29:50.266Z,13.60
2019-05-25T02:32:21.392Z,13.60
2019-05-25T02:34:52.186Z,13.50
2019-05-25T02:37:22.937Z,13.50
2019-05-25T02:39:53.553Z,13.50
2019-05-25T02:42:24.210Z,13.50
2019-05-25T02:44:55.087Z,13.40
2019-05-25T02:47:25.611Z,13.40
2019-05-25T02:49:56.342Z,13.40
2019-05-25T02:52:26.924Z,13.30
2019-05-25T02:54:57.632Z,13.40
2019-05-25T02:57:28.077Z,13.40
2019-05-25T02:59:58.752Z,13.40
2019-05-25T03:02:29.191Z,13.40
2019-05-25T03:05:01.115Z,13.40
2019-05-25T03:07:32.921Z,13.40
2019-05-25T03:10:04.909Z,13.40
2019-05-25T03:12:35.475Z,13.40
2019-05-25T03:15:07.371Z,13.40
2019-05-25T03:17:38.184Z,13.40
2019-05-25T03:20:09.609Z,13.40
2019-05-25T03:22:40.096Z,13.50
2019-05-25T03:25:11.058Z,13.50
2019-05-25T03:27:41.680Z,13.40
2019-05-25T03:30:12.925Z,13.40
2019-05-25T03:32:43.630Z,13.40
2019-05-25T03:35:14.696Z,13.40
2019-05-25T03:37:45.307Z,13.40
2019-05-25T03:40:15.794Z,13.40
2019-05-25T03:42:46.326Z,13.40
2019-05-25T03:45:16.809Z,13.50
2019-05-25T03:47:47.530Z,13.50
2019-05-25T03:50:18.428Z,13.50
2019-05-25T03:52:48.898Z,13.50
2019-05-25T03:55:19.351Z,13.50
2019-05-25T03:57:50.098Z,13.50
2019-05-25T04:00:31.446Z,13.50
2019-05-25T04:03:02.055Z,13.50
2019-05-25T04:05:32.722Z,13.40
2019-05-25T04:08:03.447Z,13.40
2019-05-25T04:10:33.870Z,13.40
2019-05-25T04:13:04.297Z,13.40
2019-05-25T04:15:34.739Z,13.40
2019-05-25T04:18:05.538Z,13.40
2019-05-25T04:20:37.083Z,13.40
2019-05-25T04:23:07.815Z,13.40
2019-05-25T04:25:38.361Z,13.40
2019-05-25T04:28:09.116Z,13.50
2019-05-25T04:30:40.132Z,13.60
2019-05-25T04:33:10.670Z,13.60
2019-05-25T04:35:41.151Z,13.70
2019-05-25T04:38:11.732Z,13.70
2019-05-25T04:40:42.167Z,13.80
2019-05-25T04:43:12.595Z,13.90
2019-05-25T04:45:44.209Z,13.90
2019-05-25T04:48:14.663Z,14.00
2019-05-25T04:50:45.088Z,14.10
2019-05-25T04:53:15.466Z,14.10
2019-05-25T04:55:46.159Z,14.20
2019-05-25T04:58:16.627Z,14.30
2019-05-25T05:00:47.289Z,14.40
2019-05-25T05:03:17.733Z,14.50
2019-05-25T05:05:48.187Z,14.60
2019-05-25T05:08:18.596Z,14.60
2019-05-25T05:10:49.240Z,14.80
2019-05-25T05:13:20.734Z,14.90
2019-05-25T05:15:51.386Z,15.00
2019-05-25T05:18:21.904Z,15.10
2019-05-25T05:20:52.332Z,15.20
2019-05-25T05:23:22.958Z,15.30
2019-05-25T05:25:53.378Z,15.40
2019-05-25T05:28:23.944Z,15.50
2019-05-25T05:30:54.622Z,15.60
2019-05-25T05:33:25.313Z,15.70
2019-05-25T05:35:57.152Z,15.70
2019-05-25T05:38:28.848Z,15.80
2019-05-25T05:41:00.316Z,15.90
2019-05-25T05:43:32.346Z,15.90
2019-05-25T05:46:04.917Z,16.00
2019-05-25T05:48:37.962Z,16.00
2019-05-25T05:51:10.765Z,16.00
2019-05-25T05:53:43.711Z,16.10
2019-05-25T05:56:15.099Z,16.20
2019-05-25T05:58:45.590Z,16.30
2019-05-25T06:01:16.011Z,16.40
2019-05-25T06:03:46.606Z,16.40
2019-05-25T06:06:17.021Z,16.50
2019-05-25T06:08:47.437Z,16.50
2019-05-25T06:11:17.973Z,16.70
2019-05-25T06:13:48.421Z,16.70
2019-05-25T06:16:19.098Z,16.80
2019-05-25T06:18:49.886Z,16.80
2019-05-25T06:21:20.433Z,16.90
2019-05-25T06:23:54.166Z,17.00
2019-05-25T06:26:24.699Z,17.10
2019-05-25T06:28:56.400Z,17.20
2019-05-25T06:31:26.834Z,17.30
2019-05-25T06:33:57.254Z,17.40
2019-05-25T06:36:28.116Z,17.40
2019-05-25T06:38:58.548Z,17.50
2019-05-25T06:41:35.190Z,17.50
2019-05-25T06:44:06.335Z,17.50
2019-05-25T06:46:39.631Z,17.60
2019-05-25T06:49:09.026Z,17.60
2019-05-25T06:51:39.560Z,17.60
2019-05-25T06:54:10.030Z,17.70
2019-05-25T06:56:40.465Z,17.80
2019-05-25T06:59:11.174Z,17.90
2019-05-25T07:01:41.775Z,18.00
2019-05-25T07:04:12.395Z,18.10
2019-05-25T07:06:43.070Z,18.20
2019-05-25T07:09:13.973Z,18.20
2019-05-25T07:11:44.477Z,18.30
2019-05-25T07:14:15.339Z,18.40
2019-05-25T07:16:45.749Z,18.40
2019-05-25T07:19:16.249Z,18.50
2019-05-25T07:21:46.752Z,18.60
2019-05-25T07:24:17.471Z,18.60
2019-05-25T07:26:47.901Z,18.70
2019-05-25T07:29:19.220Z,18.70
2019-05-25T07:31:50.129Z,18.80
2019-05-25T07:34:21.098Z,18.80
2019-05-25T07:36:51.932Z,18.90
2019-05-25T07:39:22.450Z,19.00
2019-05-25T07:41:52.918Z,19.00
2019-05-25T07:44:23.453Z,19.10
2019-05-25T07:46:54.032Z,19.20
2019-05-25T07:49:24.850Z,19.30
2019-05-25T07:51:55.351Z,19.40
2019-05-25T07:54:26.059Z,19.40
2019-05-25T07:56:56.673Z,19.40
2019-05-25T07:59:27.072Z,19.40
2019-05-25T08:01:57.694Z,19.40
2019-05-25T08:04:28.261Z,19.40
2019-05-25T08:06:58.710Z,19.30
2019-05-25T08:09:29.166Z,19.30
2019-05-25T08:11:59.959Z,19.50
2019-05-25T08:14:30.577Z,19.60
2019-05-25T08:17:01.466Z,19.70
2019-05-25T08:19:31.914Z,19.80
2019-05-25T08:22:02.566Z,19.80
2019-05-25T08:24:33.130Z,19.90
2019-05-25T08:27:03.724Z,19.80
2019-05-25T08:29:38.118Z,19.90
2019-05-25T08:32:09.185Z,19.90
2019-05-25T08:34:39.669Z,20.00
2019-05-25T08:37:10.366Z,20.00
2019-05-25T08:39:40.818Z,20.00
2019-05-25T08:42:11.345Z,20.10
2019-05-25T08:44:42.065Z,20.20
2019-05-25T08:47:12.652Z,20.40
2019-05-25T08:49:43.102Z,20.50
2019-05-25T08:52:13.691Z,20.60
2019-05-25T08:54:44.115Z,20.70
2019-05-25T08:57:18.482Z,20.70
2019-05-25T08:59:46.610Z,20.80
2019-05-25T09:02:17.159Z,20.90
2019-05-25T09:04:47.869Z,21.00
2019-05-25T09:07:18.607Z,21.00
2019-05-25T09:09:49.028Z,21.10
2019-05-25T09:12:19.543Z,21.10
2019-05-25T09:14:50.273Z,21.30
2019-05-25T09:17:20.773Z,21.40
2019-05-25T09:19:51.606Z,21.40
2019-05-25T09:22:22.152Z,21.40
2019-05-25T09:24:53.799Z,21.60
2019-05-25T09:27:24.221Z,21.70
2019-05-25T09:29:54.713Z,21.80
2019-05-25T09:32:25.325Z,21.70
2019-05-25T09:34:55.834Z,21.70
2019-05-25T09:37:26.422Z,21.80
2019-05-25T09:39:57.294Z,21.70
2019-05-25T09:42:28.102Z,21.80
2019-05-25T09:44:58.879Z,21.90
2019-05-25T09:47:29.524Z,21.80
2019-05-25T09:50:00.231Z,21.70
2019-05-25T09:52:31.149Z,21.60
2019-05-25T09:55:01.700Z,21.50
2019-05-25T09:57:32.360Z,21.50
2019-05-25T10:00:04.380Z,21.70
2019-05-25T10:02:34.942Z,21.80
2019-05-25T10:05:06.135Z,21.80
2019-05-25T10:07:36.758Z,21.90
2019-05-25T10:10:07.826Z,22.10
2019-05-25T10:12:38.417Z,22.10
2019-05-25T10:15:09.533Z,22.20
2019-05-25T10:17:40.163Z,22.20
2019-05-25T10:20:10.985Z,22.20
2019-05-25T10:22:41.654Z,22.30
2019-05-25T10:25:12.894Z,22.40
2019-05-25T10:27:43.527Z,22.40
2019-05-25T10:30:14.208Z,22.60
2019-05-25T10:32:44.873Z,22.80
2019-05-25T10:35:16.400Z,23.00
2019-05-25T10:37:47.119Z,23.00
2019-05-25T10:40:17.932Z,23.10
2019-05-25T10:42:48.788Z,23.10
2019-05-25T10:45:19.623Z,23.20
2019-05-25T10:47:50.030Z,23.30
2019-05-25T10:50:22.057Z,23.50
2019-05-25T10:52:52.509Z,23.60
2019-05-25T10:55:22.909Z,23.70
2019-05-25T10:57:53.766Z,23.70
2019-05-25T11:00:24.857Z,23.80
2019-05-25T11:02:55.469Z,24.00
2019-05-25T11:05:26.015Z,23.70
2019-05-25T11:07:56.563Z,23.80
2019-05-25T11:10:26.922Z,23.80
2019-05-25T11:12:57.784Z,24.00
2019-05-25T11:15:28.443Z,24.10
2019-05-25T11:17:59.145Z,24.20
2019-05-25T11:20:29.577Z,24.20
2019-05-25T11:23:00.313Z,24.30
2019-05-25T11:25:30.916Z,24.20
2019-05-25T11:28:01.423Z,24.10
2019-05-25T11:30:32.091Z,24.00
2019-05-25T11:33:02.690Z,24.20
2019-05-25T11:35:34.313Z,24.20
2019-05-25T11:38:04.757Z,24.40
2019-05-25T11:40:35.201Z,24.00
2019-05-25T11:43:06.019Z,24.10
2019-05-25T11:45:36.725Z,24.10
2019-05-25T11:48:07.543Z,24.50
2019-05-25T11:50:38.175Z,24.70
2019-05-25T11:53:09.446Z,24.90
2019-05-25T11:55:40.103Z,24.90
2019-05-25T11:58:10.848Z,25.00
2019-05-25T12:00:41.462Z,25.20
2019-05-25T12:03:11.997Z,25.40
2019-05-25T12:05:42.768Z,25.70
2019-05-25T12:08:13.299Z,25.90
2019-05-25T12:10:44.120Z,25.50
2019-05-25T12:13:14.663Z,24.90
2019-05-25T12:15:45.329Z,24.50
2019-05-25T12:18:15.937Z,25.40
2019-05-25T12:20:46.877Z,26.90
2019-05-25T12:23:17.325Z,28.80
2019-05-25T12:25:48.145Z,30.00
2019-05-25T12:28:18.813Z,31.30
2019-05-25T12:30:57.323Z,32.20
2019-05-25T12:33:27.890Z,31.70
2019-05-25T12:35:58.648Z,29.80
2019-05-25T12:38:29.055Z,28.20
2019-05-25T12:40:59.766Z,26.40
2019-05-25T12:43:30.310Z,25.40
2019-05-25T12:46:01.008Z,25.20
2019-05-25T12:48:31.861Z,25.10
2019-05-25T12:51:02.722Z,24.70
2019-05-25T12:53:33.467Z,24.00
2019-05-25T12:56:04.097Z,23.60
2019-05-25T12:58:34.524Z,23.40
2019-05-25T13:01:05.356Z,23.10
2019-05-25T13:03:35.836Z,22.90
2019-05-25T13:06:06.619Z,22.90
2019-05-25T13:08:37.144Z,22.80
2019-05-25T13:11:09.624Z,22.80
2019-05-25T13:13:39.931Z,22.90
2019-05-25T13:16:10.741Z,23.50
2019-05-25T13:18:41.302Z,25.50
2019-05-25T13:21:11.905Z,26.90
2019-05-25T13:23:42.624Z,27.50
2019-05-25T13:26:13.248Z,26.90
2019-05-25T13:28:43.978Z,26.20
2019-05-25T13:31:14.565Z,26.50
2019-05-25T13:33:45.117Z,26.80
2019-05-25T13:36:15.531Z,26.30
2019-05-25T13:38:46.095Z,25.90
2019-05-25T13:41:16.615Z,26.60
2019-05-25T13:43:49.975Z,27.70
2019-05-25T13:46:19.139Z,28.10
2019-05-25T13:48:49.903Z,27.50
2019-05-25T13:51:20.399Z,26.60
2019-05-25T13:53:50.888Z,26.90
2019-05-25T13:56:21.698Z,27.70
2019-05-25T13:58:52.374Z,29.00
2019-05-25T14:01:28.278Z,29.60
2019-05-25T14:03:55.830Z,29.50
2019-05-25T14:06:26.751Z,29.40
2019-05-25T14:08:57.383Z,30.40
2019-05-25T14:11:27.814Z,31.60
2019-05-25T14:13:58.546Z,31.70
2019-05-25T14:16:28.994Z,31.70
2019-05-25T14:18:59.512Z,31.90
2019-05-25T14:21:31.580Z,31.40
2019-05-25T14:24:02.273Z,30.90
2019-05-25T14:26:32.788Z,30.50
2019-05-25T14:29:03.215Z,30.30
2019-05-25T14:31:45.156Z,29.90
2019-05-25T14:34:06.180Z,29.90
2019-05-25T14:36:36.712Z,31.00
2019-05-25T14:39:08.696Z,31.20
2019-05-25T14:41:39.488Z,31.00
2019-05-25T14:44:09.918Z,31.90
2019-05-25T14:46:40.521Z,32.50
2019-05-25T14:49:11.226Z,32.60
2019-05-25T14:51:41.681Z,32.10
2019-05-25T14:54:12.547Z,31.30
2019-05-25T14:56:43.237Z,31.60
2019-05-25T14:59:13.901Z,32.30
2019-05-25T15:01:59.604Z,31.60
2019-05-25T15:04:16.767Z,30.60
2019-05-25T15:06:47.367Z,30.50
2019-05-25T15:09:18.043Z,30.60
2019-05-25T15:11:49.006Z,30.90
2019-05-25T15:14:21.128Z,30.90
2019-05-25T15:16:51.899Z,31.40
2019-05-25T15:19:22.414Z,31.40
2019-05-25T15:21:53.309Z,31.70
2019-05-25T15:24:23.984Z,31.70
2019-05-25T15:26:54.737Z,30.30
2019-05-25T15:29:25.309Z,29.70
2019-05-25T15:31:56.017Z,29.80
2019-05-25T15:34:26.702Z,30.10
2019-05-25T15:36:57.216Z,30.30
2019-05-25T15:39:28.830Z,29.70
2019-05-25T15:42:00.075Z,29.90
2019-05-25T15:44:30.858Z,29.80
2019-05-25T15:47:04.698Z,29.20
2019-05-25T15:49:33.933Z,28.40
2019-05-25T15:52:05.996Z,28.00
2019-05-25T15:54:37.025Z,28.10
2019-05-25T15:57:07.884Z,28.10
2019-05-25T15:59:38.532Z,27.50
2019-05-25T16:02:09.055Z,27.00
2019-05-25T16:04:39.681Z,26.80
2019-05-25T16:07:10.657Z,27.00
2019-05-25T16:09:41.415Z,27.00
2019-05-25T16:12:12.041Z,26.60
2019-05-25T16:14:43.004Z,25.90
2019-05-25T16:17:13.671Z,25.50
2019-05-25T16:19:44.569Z,25.20
2019-05-25T16:22:15.121Z,25.60
2019-05-25T16:24:45.875Z,25.70
2019-05-25T16:27:16.397Z,26.20
2019-05-25T16:29:47.160Z,25.90
2019-05-25T16:32:17.738Z,25.70
2019-05-25T16:34:48.423Z,25.40
2019-05-25T16:37:19.063Z,25.10
2019-05-25T16:39:49.955Z,24.90
2019-05-25T16:42:24.082Z,24.50
2019-05-25T16:44:55.084Z,24.10
2019-05-25T16:47:26.073Z,23.70
2019-05-25T16:49:57.604Z,23.50
2019-05-25T16:52:28.855Z,23.40
2019-05-25T16:54:59.987Z,23.20
2019-05-25T16:57:32.942Z,22.90
2019-05-25T17:00:04.691Z,22.70
2019-05-25T17:02:36.439Z,22.50
2019-05-25T17:05:07.900Z,22.50
2019-05-25T17:07:39.242Z,22.40
2019-05-25T17:10:11.304Z,22.40
2019-05-25T17:12:42.018Z,22.30
2019-05-25T17:15:12.706Z,22.30
2019-05-25T17:17:43.774Z,22.10
2019-05-25T17:20:14.786Z,21.90
2019-05-25T17:22:47.304Z,21.70
2019-05-25T17:25:18.540Z,21.60
2019-05-25T17:27:49.379Z,21.60
2019-05-25T17:30:39.410Z,21.50
2019-05-25T17:33:09.938Z,21.40
2019-05-25T17:35:40.712Z,21.20
2019-05-25T17:38:11.141Z,21.20
2019-05-25T17:40:41.863Z,21.10
2019-05-25T17:43:12.528Z,21.10
2019-05-25T17:45:43.153Z,21.00
2019-05-25T17:48:14.185Z,20.90
2019-05-25T17:50:44.731Z,20.80
2019-05-25T17:53:15.193Z,20.80
2019-05-25T17:55:45.829Z,20.80
2019-05-25T17:58:16.569Z,20.70
2019-05-25T18:00:50.387Z,20.60
2019-05-25T18:03:21.083Z,20.50
2019-05-25T18:05:51.572Z,20.40
2019-05-25T18:08:22.097Z,20.20
2019-05-25T18:10:54.478Z,20.20
2019-05-25T18:13:28.694Z,20.20
2019-05-25T18:15:57.265Z,20.20
2019-05-25T18:18:27.662Z,20.20
2019-05-25T18:20:58.370Z,20.10
2019-05-25T18:23:28.920Z,20.00
2019-05-25T18:25:59.541Z,20.00
2019-05-25T18:28:30.339Z,19.90
2019-05-25T18:31:02.044Z,19.90
2019-05-25T18:33:32.612Z,19.80
2019-05-25T18:36:03.202Z,19.90
2019-05-25T18:38:33.768Z,19.90
2019-05-25T18:41:04.609Z,19.90
2019-05-25T18:43:35.035Z,19.80
2019-05-25T18:46:06.546Z,19.80
2019-05-25T18:48:36.978Z,19.70
2019-05-25T18:51:07.954Z,19.70
2019-05-25T18:53:38.791Z,19.60
2019-05-25T18:56:09.390Z,19.60
2019-05-25T18:58:40.186Z,19.50
2019-05-25T19:01:10.638Z,19.50
2019-05-25T19:03:41.239Z,19.40
2019-05-25T19:06:11.712Z,19.30
2019-05-25T19:08:42.474Z,19.30
2019-05-25T19:11:12.882Z,19.20
2019-05-25T19:13:43.388Z,19.10
2019-05-25T19:16:13.780Z,19.00
2019-05-25T19:18:44.478Z,18.90
2019-05-25T19:21:15.337Z,18.90
2019-05-25T19:23:46.129Z,18.80
2019-05-25T19:26:16.823Z,18.80
2019-05-25T19:28:47.507Z,18.70
2019-05-25T19:31:18.129Z,18.60
2019-05-25T19:33:48.980Z,18.50
2019-05-25T19:36:19.573Z,18.50
2019-05-25T19:38:50.487Z,18.50
2019-05-25T19:41:21.082Z,18.40
2019-05-25T19:43:51.704Z,18.40
2019-05-25T19:46:22.336Z,18.30
2019-05-25T19:48:53.374Z,18.30
2019-05-25T19:51:24.167Z,18.20
2019-05-25T19:53:55.050Z,18.10
2019-05-25T19:56:25.570Z,18.10
2019-05-25T19:58:56.198Z,18.00
2019-05-25T20:01:26.880Z,18.00
2019-05-25T20:03:57.675Z,18.00
2019-05-25T20:06:28.317Z,17.90
2019-05-25T20:08:58.942Z,17.90
2019-05-25T20:11:29.506Z,17.80
2019-05-25T20:14:00.149Z,17.70
2019-05-25T20:16:30.729Z,17.70
2019-05-25T20:19:01.222Z,17.60
2019-05-25T20:21:32.270Z,17.60
2019-05-25T20:24:02.839Z,17.60
2019-05-25T20:26:33.454Z,17.60
2019-05-25T20:29:04.360Z,17.50
2019-05-25T20:31:35.036Z,17.30
2019-05-25T20:34:05.529Z,17.30
2019-05-25T20:36:36.238Z,17.20
2019-05-25T20:39:07.919Z,17.20
2019-05-25T20:41:38.695Z,17.10
2019-05-25T20:44:09.232Z,17.10
2019-05-25T20:46:40.049Z,17.10
2019-05-25T20:49:10.764Z,17.00
2019-05-25T20:51:41.342Z,16.90
2019-05-25T20:54:11.880Z,16.80
2019-05-25T20:56:42.391Z,16.80
2019-05-25T20:59:13.135Z,16.70
2019-05-25T21:01:43.602Z,16.70
2019-05-25T21:04:14.210Z,16.60
2019-05-25T21:06:44.771Z,16.60
2019-05-25T21:09:15.354Z,16.60
2019-05-25T21:11:47.020Z,16.50
2019-05-25T21:14:17.687Z,16.40
2019-05-25T21:16:48.283Z,16.30
2019-05-25T21:19:18.738Z,16.30
2019-05-25T21:21:50.702Z,16.20
2019-05-25T21:24:21.220Z,16.10
2019-05-25T21:26:51.835Z,16.10
2019-05-25T21:29:22.430Z,16.00
2019-05-25T21:31:53.002Z,16.00
2019-05-25T21:34:23.764Z,15.90
2019-05-25T21:36:54.161Z,15.90
2019-05-25T21:39:25.102Z,15.90
2019-05-25T21:41:55.762Z,15.90
2019-05-25T21:44:26.210Z,15.90
2019-05-25T21:46:57.014Z,15.90
2019-05-25T21:49:27.438Z,15.80
2019-05-25T21:51:58.073Z,15.70
2019-05-25T21:54:28.674Z,15.60
2019-05-25T21:56:59.242Z,15.50
2019-05-25T21:59:32.588Z,15.50
2019-05-25T22:02:02.104Z,15.50
2019-05-25T22:04:32.610Z,15.40
2019-05-25T22:07:03.515Z,15.40
2019-05-25T22:09:33.946Z,15.40
2019-05-25T22:12:04.375Z,15.30
2019-05-25T22:14:35.012Z,15.30
2019-05-25T22:17:05.894Z,15.20
2019-05-25T22:19:36.369Z,15.20
2019-05-25T22:22:07.162Z,15.10
2019-05-25T22:24:37.711Z,15.10
2019-05-25T22:27:08.207Z,15.10
2019-05-25T22:29:38.681Z,15.10
2019-05-25T22:32:09.119Z,15.00
2019-05-25T22:34:39.748Z,14.90
2019-05-25T22:37:10.337Z,14.80
2019-05-25T22:39:40.899Z,14.70
2019-05-25T22:42:11.533Z,14.60
2019-05-25T22:44:42.065Z,14.60
2019-05-25T22:47:12.959Z,14.60
2019-05-25T22:49:43.392Z,14.50
2019-05-25T22:52:13.911Z,14.50
2019-05-25T22:54:44.385Z,14.50
2019-05-25T22:57:15.020Z,14.50
2019-05-25T22:59:45.409Z,14.40
2019-05-25T23:02:15.952Z,14.30
2019-05-25T23:04:46.483Z,14.40
2019-05-25T23:07:17.009Z,14.30
2019-05-25T23:09:47.494Z,14.30
2019-05-25T23:12:18.315Z,14.10
2019-05-25T23:14:49.776Z,14.10
2019-05-25T23:17:20.640Z,14.10
2019-05-25T23:19:51.017Z,14.10
2019-05-25T23:22:21.813Z,14.10
2019-05-25T23:24:52.582Z,14.10
2019-05-25T23:27:23.384Z,14.00
2019-05-25T23:29:54.004Z,13.90
2019-05-25T23:32:24.732Z,13.70
2019-05-25T23:34:55.839Z,13.50
2019-05-25T23:37:26.394Z,13.40
2019-05-25T23:39:56.881Z,13.30
2019-05-25T23:42:27.579Z,13.30
2019-05-25T23:44:58.231Z,13.30
2019-05-25T23:47:28.914Z,13.20
2019-05-25T23:50:00.706Z,13.20
2019-05-25T23:52:31.231Z,13.20
2019-05-25T23:55:04.936Z,13.20
2019-05-25T23:57:33.933Z,13.20
